sensor_id;sensor_type;location;lat;lon;timestamp;P1;durP1;ratioP1;P2;durP2;ratioP2
65009;SDS011;51556;50.002;22.014;2022-09-24T00:01:06;14.40;;;9.50;;
65009;SDS011;51556;50.002;22.014;2022-09-24T00:03:40;13.80;;;9.20;;
65009;SDS011;51556;50.002;22.014;2022-09-24T00:06:09;20.70;;;10.90;;
65009;SDS011;51556;50.002;22.014;2022-09-24T00:08:38;17.10;;;10.60;;
65009;SDS011;51556;50.002;22.014;2022-09-24T00:11:05;17.80;;;10.30;;
65009;SDS011;51556;50.002;22.014;2022-09-24T00:13:32;17.80;;;10.80;;
65009;SDS011;51556;50.002;22.014;2022-09-24T00:16:08;20.90;;;11.00;;
65009;SDS011;51556;50.002;22.014;2022-09-24T00:18:36;19.60;;;11.40;;
65009;SDS011;51556;50.002;22.014;2022-09-24T00:23:48;17.90;;;11.90;;
65009;SDS011;51556;50.002;22.014;2022-09-24T00:29:04;26.60;;;13.20;;
65009;SDS011;51556;50.002;22.014;2022-09-24T00:31:30;19.50;;;11.70;;
65009;SDS011;51556;50.002;22.014;2022-09-24T00:33:56;20.50;;;12.50;;
65009;SDS011;51556;50.002;22.014;2022-09-24T00:36:22;19.70;;;12.30;;
65009;SDS011;51556;50.002;22.014;2022-09-24T00:38:52;17.20;;;11.00;;
65009;SDS011;51556;50.002;22.014;2022-09-24T00:41:20;21.00;;;11.40;;
65009;SDS011;51556;50.002;22.014;2022-09-24T00:43:47;18.10;;;9.80;;
65009;SDS011;51556;50.002;22.014;2022-09-24T00:49:01;17.80;;;10.10;;
65009;SDS011;51556;50.002;22.014;2022-09-24T00:51:34;15.50;;;10.00;;
65009;SDS011;51556;50.002;22.014;2022-09-24T00:54:00;16.20;;;9.90;;
65009;SDS011;51556;50.002;22.014;2022-09-24T00:56:31;15.90;;;10.10;;
65009;SDS011;51556;50.002;22.014;2022-09-24T00:59:00;14.80;;;9.00;;
65009;SDS011;51556;50.002;22.014;2022-09-24T01:01:28;12.60;;;8.50;;
65009;SDS011;51556;50.002;22.014;2022-09-24T01:03:54;14.30;;;8.20;;
65009;SDS011;51556;50.002;22.014;2022-09-24T01:06:22;12.70;;;8.30;;
65009;SDS011;51556;50.002;22.014;2022-09-24T01:08:49;11.00;;;7.50;;
65009;SDS011;51556;50.002;22.014;2022-09-24T01:27:32;10.50;;;7.10;;
65009;SDS011;51556;50.002;22.014;2022-09-24T01:30:21;10.30;;;6.90;;
65009;SDS011;51556;50.002;22.014;2022-09-24T01:32:51;11.90;;;7.00;;
65009;SDS011;51556;50.002;22.014;2022-09-24T01:38:27;10.40;;;7.30;;
65009;SDS011;51556;50.002;22.014;2022-09-24T01:40:57;13.00;;;8.00;;
65009;SDS011;51556;50.002;22.014;2022-09-24T01:43:27;11.20;;;7.70;;
65009;SDS011;51556;50.002;22.014;2022-09-24T01:45:55;12.50;;;6.90;;
65009;SDS011;51556;50.002;22.014;2022-09-24T01:48:23;9.40;;;6.80;;
65009;SDS011;51556;50.002;22.014;2022-09-24T01:51:04;14.70;;;6.90;;
65009;SDS011;51556;50.002;22.014;2022-09-24T01:53:45;11.40;;;7.10;;
65009;SDS011;51556;50.002;22.014;2022-09-24T01:56:17;17.60;;;7.60;;
65009;SDS011;51556;50.002;22.014;2022-09-24T01:59:00;13.90;;;6.50;;
65009;SDS011;51556;50.002;22.014;2022-09-24T02:01:32;10.30;;;6.40;;
65009;SDS011;51556;50.002;22.014;2022-09-24T02:04:05;9.30;;;6.40;;
65009;SDS011;51556;50.002;22.014;2022-09-24T02:06:38;9.90;;;6.10;;
65009;SDS011;51556;50.002;22.014;2022-09-24T02:11:58;11.20;;;6.80;;
65009;SDS011;51556;50.002;22.014;2022-09-24T02:14:31;11.20;;;7.00;;
65009;SDS011;51556;50.002;22.014;2022-09-24T02:17:04;11.30;;;6.90;;
65009;SDS011;51556;50.002;22.014;2022-09-24T02:19:31;9.90;;;6.40;;
65009;SDS011;51556;50.002;22.014;2022-09-24T02:22:00;9.80;;;6.20;;
65009;SDS011;51556;50.002;22.014;2022-09-24T02:24:45;10.70;;;6.50;;
65009;SDS011;51556;50.002;22.014;2022-09-24T02:27:18;10.70;;;6.60;;
65009;SDS011;51556;50.002;22.014;2022-09-24T02:29:44;10.70;;;6.70;;
65009;SDS011;51556;50.002;22.014;2022-09-24T02:32:12;10.70;;;5.90;;
65009;SDS011;51556;50.002;22.014;2022-09-24T02:34:43;11.10;;;6.30;;
65009;SDS011;51556;50.002;22.014;2022-09-24T02:39:39;8.90;;;6.10;;
65009;SDS011;51556;50.002;22.014;2022-09-24T02:42:05;9.50;;;6.00;;
65009;SDS011;51556;50.002;22.014;2022-09-24T02:44:34;9.80;;;5.50;;
65009;SDS011;51556;50.002;22.014;2022-09-24T02:47:00;10.10;;;6.50;;
65009;SDS011;51556;50.002;22.014;2022-09-24T02:49:27;8.70;;;5.70;;
65009;SDS011;51556;50.002;22.014;2022-09-24T02:51:53;9.20;;;6.50;;
65009;SDS011;51556;50.002;22.014;2022-09-24T02:54:19;9.30;;;5.40;;
65009;SDS011;51556;50.002;22.014;2022-09-24T02:56:46;10.80;;;6.50;;
65009;SDS011;51556;50.002;22.014;2022-09-24T02:59:12;10.10;;;6.90;;
65009;SDS011;51556;50.002;22.014;2022-09-24T03:01:38;10.30;;;6.60;;
65009;SDS011;51556;50.002;22.014;2022-09-24T03:04:03;16.50;;;6.90;;
65009;SDS011;51556;50.002;22.014;2022-09-24T03:06:30;9.00;;;6.20;;
65009;SDS011;51556;50.002;22.014;2022-09-24T03:08:55;11.80;;;6.10;;
65009;SDS011;51556;50.002;22.014;2022-09-24T03:11:22;9.90;;;6.30;;
65009;SDS011;51556;50.002;22.014;2022-09-24T03:13:48;11.40;;;6.50;;
65009;SDS011;51556;50.002;22.014;2022-09-24T03:16:15;9.10;;;6.80;;
65009;SDS011;51556;50.002;22.014;2022-09-24T03:18:41;10.50;;;6.60;;
65009;SDS011;51556;50.002;22.014;2022-09-24T03:21:10;11.20;;;6.70;;
65009;SDS011;51556;50.002;22.014;2022-09-24T03:23:37;11.50;;;7.30;;
65009;SDS011;51556;50.002;22.014;2022-09-24T03:26:02;12.00;;;7.40;;
65009;SDS011;51556;50.002;22.014;2022-09-24T03:28:28;12.60;;;7.70;;
65009;SDS011;51556;50.002;22.014;2022-09-24T03:30:54;14.60;;;8.30;;
65009;SDS011;51556;50.002;22.014;2022-09-24T03:36:00;13.90;;;8.90;;
65009;SDS011;51556;50.002;22.014;2022-09-24T03:38:26;15.10;;;8.80;;
65009;SDS011;51556;50.002;22.014;2022-09-24T03:40:53;15.50;;;9.60;;
65009;SDS011;51556;50.002;22.014;2022-09-24T03:43:22;21.40;;;9.00;;
65009;SDS011;51556;50.002;22.014;2022-09-24T03:45:48;16.30;;;9.80;;
65009;SDS011;51556;50.002;22.014;2022-09-24T03:48:14;12.80;;;8.80;;
65009;SDS011;51556;50.002;22.014;2022-09-24T03:50:41;15.20;;;9.50;;
65009;SDS011;51556;50.002;22.014;2022-09-24T03:53:07;14.00;;;9.30;;
65009;SDS011;51556;50.002;22.014;2022-09-24T03:55:32;16.00;;;8.40;;
65009;SDS011;51556;50.002;22.014;2022-09-24T03:57:58;17.70;;;9.30;;
65009;SDS011;51556;50.002;22.014;2022-09-24T04:00:23;13.40;;;8.50;;
65009;SDS011;51556;50.002;22.014;2022-09-24T04:02:49;15.10;;;9.70;;
65009;SDS011;51556;50.002;22.014;2022-09-24T04:05:15;18.10;;;9.50;;
65009;SDS011;51556;50.002;22.014;2022-09-24T04:07:41;18.80;;;9.70;;
65009;SDS011;51556;50.002;22.014;2022-09-24T04:10:08;16.50;;;10.20;;
65009;SDS011;51556;50.002;22.014;2022-09-24T04:12:34;18.80;;;10.50;;
65009;SDS011;51556;50.002;22.014;2022-09-24T04:14:59;18.40;;;10.00;;
65009;SDS011;51556;50.002;22.014;2022-09-24T04:17:30;20.60;;;10.10;;
65009;SDS011;51556;50.002;22.014;2022-09-24T04:19:58;17.50;;;9.70;;
65009;SDS011;51556;50.002;22.014;2022-09-24T04:22:24;16.20;;;8.70;;
65009;SDS011;51556;50.002;22.014;2022-09-24T04:24:50;15.30;;;9.30;;
65009;SDS011;51556;50.002;22.014;2022-09-24T04:27:16;13.90;;;8.30;;
65009;SDS011;51556;50.002;22.014;2022-09-24T04:29:43;13.70;;;8.60;;
65009;SDS011;51556;50.002;22.014;2022-09-24T04:32:08;13.60;;;8.50;;
65009;SDS011;51556;50.002;22.014;2022-09-24T04:34:34;12.50;;;8.30;;
65009;SDS011;51556;50.002;22.014;2022-09-24T04:36:59;14.10;;;7.90;;
65009;SDS011;51556;50.002;22.014;2022-09-24T04:39:25;11.60;;;7.90;;
65009;SDS011;51556;50.002;22.014;2022-09-24T04:41:52;13.30;;;7.60;;
65009;SDS011;51556;50.002;22.014;2022-09-24T04:44:18;12.00;;;7.50;;
65009;SDS011;51556;50.002;22.014;2022-09-24T04:46:43;16.20;;;8.50;;
65009;SDS011;51556;50.002;22.014;2022-09-24T04:49:09;13.10;;;7.40;;
65009;SDS011;51556;50.002;22.014;2022-09-24T04:51:36;14.60;;;7.50;;
65009;SDS011;51556;50.002;22.014;2022-09-24T04:54:02;13.90;;;7.30;;
65009;SDS011;51556;50.002;22.014;2022-09-24T04:56:28;12.00;;;7.50;;
65009;SDS011;51556;50.002;22.014;2022-09-24T04:58:55;11.10;;;6.60;;
65009;SDS011;51556;50.002;22.014;2022-09-24T05:01:21;9.90;;;6.20;;
65009;SDS011;51556;50.002;22.014;2022-09-24T05:03:47;11.40;;;7.10;;
65009;SDS011;51556;50.002;22.014;2022-09-24T05:06:13;11.60;;;7.40;;
65009;SDS011;51556;50.002;22.014;2022-09-24T05:08:39;12.50;;;6.60;;
65009;SDS011;51556;50.002;22.014;2022-09-24T05:11:04;11.00;;;6.20;;
65009;SDS011;51556;50.002;22.014;2022-09-24T05:13:30;11.90;;;6.30;;
65009;SDS011;51556;50.002;22.014;2022-09-24T05:15:55;9.90;;;6.10;;
65009;SDS011;51556;50.002;22.014;2022-09-24T05:18:21;11.80;;;5.90;;
65009;SDS011;51556;50.002;22.014;2022-09-24T05:20:46;12.50;;;6.10;;
65009;SDS011;51556;50.002;22.014;2022-09-24T05:23:13;8.60;;;5.60;;
65009;SDS011;51556;50.002;22.014;2022-09-24T05:25:38;9.30;;;6.20;;
65009;SDS011;51556;50.002;22.014;2022-09-24T05:28:24;9.30;;;5.60;;
65009;SDS011;51556;50.002;22.014;2022-09-24T05:30:49;8.70;;;5.80;;
65009;SDS011;51556;50.002;22.014;2022-09-24T05:33:15;10.60;;;6.00;;
65009;SDS011;51556;50.002;22.014;2022-09-24T05:35:40;9.90;;;5.80;;
65009;SDS011;51556;50.002;22.014;2022-09-24T05:38:06;8.90;;;5.90;;
65009;SDS011;51556;50.002;22.014;2022-09-24T05:40:31;7.90;;;4.90;;
65009;SDS011;51556;50.002;22.014;2022-09-24T05:43:12;8.60;;;5.20;;
65009;SDS011;51556;50.002;22.014;2022-09-24T05:45:38;8.30;;;4.90;;
65009;SDS011;51556;50.002;22.014;2022-09-24T05:48:05;6.80;;;5.00;;
65009;SDS011;51556;50.002;22.014;2022-09-24T05:50:32;9.30;;;5.00;;
65009;SDS011;51556;50.002;22.014;2022-09-24T05:52:59;6.50;;;4.20;;
65009;SDS011;51556;50.002;22.014;2022-09-24T05:55:25;6.10;;;4.50;;
65009;SDS011;51556;50.002;22.014;2022-09-24T05:57:51;7.80;;;4.50;;
65009;SDS011;51556;50.002;22.014;2022-09-24T06:00:17;5.20;;;4.40;;
65009;SDS011;51556;50.002;22.014;2022-09-24T06:02:42;5.90;;;4.20;;
65009;SDS011;51556;50.002;22.014;2022-09-24T06:05:08;8.80;;;4.60;;
65009;SDS011;51556;50.002;22.014;2022-09-24T06:07:34;5.40;;;3.70;;
65009;SDS011;51556;50.002;22.014;2022-09-24T06:09:59;9.70;;;4.60;;
65009;SDS011;51556;50.002;22.014;2022-09-24T06:12:25;5.00;;;3.80;;
65009;SDS011;51556;50.002;22.014;2022-09-24T06:14:51;5.40;;;4.20;;
65009;SDS011;51556;50.002;22.014;2022-09-24T06:17:18;10.70;;;5.20;;
65009;SDS011;51556;50.002;22.014;2022-09-24T06:19:47;7.40;;;4.60;;
65009;SDS011;51556;50.002;22.014;2022-09-24T06:22:13;7.80;;;4.60;;
65009;SDS011;51556;50.002;22.014;2022-09-24T06:24:39;7.80;;;4.40;;
65009;SDS011;51556;50.002;22.014;2022-09-24T06:27:05;6.80;;;5.00;;
65009;SDS011;51556;50.002;22.014;2022-09-24T06:29:30;7.70;;;4.70;;
65009;SDS011;51556;50.002;22.014;2022-09-24T06:31:56;5.40;;;4.00;;
65009;SDS011;51556;50.002;22.014;2022-09-24T06:34:21;6.80;;;4.50;;
65009;SDS011;51556;50.002;22.014;2022-09-24T06:36:47;7.80;;;4.50;;
65009;SDS011;51556;50.002;22.014;2022-09-24T06:39:12;7.30;;;5.00;;
65009;SDS011;51556;50.002;22.014;2022-09-24T06:41:38;6.50;;;4.20;;
65009;SDS011;51556;50.002;22.014;2022-09-24T06:44:03;8.50;;;5.20;;
65009;SDS011;51556;50.002;22.014;2022-09-24T06:46:29;7.70;;;4.80;;
65009;SDS011;51556;50.002;22.014;2022-09-24T06:48:55;6.70;;;4.90;;
65009;SDS011;51556;50.002;22.014;2022-09-24T06:51:20;8.00;;;4.70;;
65009;SDS011;51556;50.002;22.014;2022-09-24T06:53:49;6.70;;;4.40;;
65009;SDS011;51556;50.002;22.014;2022-09-24T06:56:16;8.90;;;4.20;;
65009;SDS011;51556;50.002;22.014;2022-09-24T06:58:41;9.90;;;5.00;;
65009;SDS011;51556;50.002;22.014;2022-09-24T07:01:07;7.90;;;4.60;;
65009;SDS011;51556;50.002;22.014;2022-09-24T07:03:35;6.50;;;4.80;;
65009;SDS011;51556;50.002;22.014;2022-09-24T07:06:03;7.40;;;4.80;;
65009;SDS011;51556;50.002;22.014;2022-09-24T07:08:30;10.30;;;5.00;;
65009;SDS011;51556;50.002;22.014;2022-09-24T07:10:56;5.70;;;4.30;;
65009;SDS011;51556;50.002;22.014;2022-09-24T07:13:21;8.70;;;4.90;;
65009;SDS011;51556;50.002;22.014;2022-09-24T07:15:50;9.50;;;4.90;;
65009;SDS011;51556;50.002;22.014;2022-09-24T07:18:16;8.60;;;4.90;;
65009;SDS011;51556;50.002;22.014;2022-09-24T07:20:43;7.90;;;5.40;;
65009;SDS011;51556;50.002;22.014;2022-09-24T07:23:10;6.60;;;4.70;;
65009;SDS011;51556;50.002;22.014;2022-09-24T07:25:37;7.30;;;4.90;;
65009;SDS011;51556;50.002;22.014;2022-09-24T07:28:07;9.10;;;5.10;;
65009;SDS011;51556;50.002;22.014;2022-09-24T07:30:43;10.00;;;5.70;;
65009;SDS011;51556;50.002;22.014;2022-09-24T07:33:22;11.50;;;5.50;;
65009;SDS011;51556;50.002;22.014;2022-09-24T07:35:47;7.30;;;4.90;;
65009;SDS011;51556;50.002;22.014;2022-09-24T07:38:15;7.30;;;4.40;;
65009;SDS011;51556;50.002;22.014;2022-09-24T07:40:41;10.60;;;5.20;;
65009;SDS011;51556;50.002;22.014;2022-09-24T07:43:07;7.60;;;5.90;;
65009;SDS011;51556;50.002;22.014;2022-09-24T07:45:37;8.90;;;5.20;;
65009;SDS011;51556;50.002;22.014;2022-09-24T07:48:03;8.20;;;5.20;;
65009;SDS011;51556;50.002;22.014;2022-09-24T07:50:31;9.10;;;5.30;;
65009;SDS011;51556;50.002;22.014;2022-09-24T07:52:59;7.90;;;4.70;;
65009;SDS011;51556;50.002;22.014;2022-09-24T07:55:25;8.20;;;5.20;;
65009;SDS011;51556;50.002;22.014;2022-09-24T07:57:54;8.60;;;4.90;;
65009;SDS011;51556;50.002;22.014;2022-09-24T08:00:22;6.90;;;5.00;;
65009;SDS011;51556;50.002;22.014;2022-09-24T08:02:48;7.70;;;4.40;;
65009;SDS011;51556;50.002;22.014;2022-09-24T08:05:18;8.70;;;4.90;;
65009;SDS011;51556;50.002;22.014;2022-09-24T08:07:50;7.60;;;4.60;;
65009;SDS011;51556;50.002;22.014;2022-09-24T08:10:17;8.20;;;4.60;;
65009;SDS011;51556;50.002;22.014;2022-09-24T08:12:43;6.90;;;4.50;;
65009;SDS011;51556;50.002;22.014;2022-09-24T08:15:09;7.00;;;4.30;;
65009;SDS011;51556;50.002;22.014;2022-09-24T08:17:34;7.20;;;4.40;;
65009;SDS011;51556;50.002;22.014;2022-09-24T08:20:00;11.30;;;7.30;;
65009;SDS011;51556;50.002;22.014;2022-09-24T08:22:26;6.40;;;3.90;;
65009;SDS011;51556;50.002;22.014;2022-09-24T08:24:54;6.40;;;3.80;;
65009;SDS011;51556;50.002;22.014;2022-09-24T08:27:21;10.10;;;7.20;;
65009;SDS011;51556;50.002;22.014;2022-09-24T08:29:48;5.30;;;3.70;;
65009;SDS011;51556;50.002;22.014;2022-09-24T08:32:13;13.90;;;10.90;;
65009;SDS011;51556;50.002;22.014;2022-09-24T08:34:39;6.00;;;3.80;;
65009;SDS011;51556;50.002;22.014;2022-09-24T08:37:07;6.20;;;3.60;;
65009;SDS011;51556;50.002;22.014;2022-09-24T08:39:33;5.20;;;3.30;;
65009;SDS011;51556;50.002;22.014;2022-09-24T08:42:02;8.00;;;3.90;;
65009;SDS011;51556;50.002;22.014;2022-09-24T08:44:37;6.60;;;3.40;;
65009;SDS011;51556;50.002;22.014;2022-09-24T08:47:36;5.20;;;3.30;;
65009;SDS011;51556;50.002;22.014;2022-09-24T08:55:53;4.60;;;3.40;;
65009;SDS011;51556;50.002;22.014;2022-09-24T09:00:31;5.10;;;3.70;;
65009;SDS011;51556;50.002;22.014;2022-09-24T09:12:20;3.80;;;2.80;;
65009;SDS011;51556;50.002;22.014;2022-09-24T09:14:56;4.30;;;2.90;;
65009;SDS011;51556;50.002;22.014;2022-09-24T09:17:48;6.20;;;3.20;;
65009;SDS011;51556;50.002;22.014;2022-09-24T09:20:23;5.20;;;3.50;;
65009;SDS011;51556;50.002;22.014;2022-09-24T09:22:58;5.40;;;3.20;;
65009;SDS011;51556;50.002;22.014;2022-09-24T09:25:32;4.70;;;3.30;;
65009;SDS011;51556;50.002;22.014;2022-09-24T09:28:10;4.60;;;2.80;;
65009;SDS011;51556;50.002;22.014;2022-09-24T09:30:45;5.50;;;3.60;;
65009;SDS011;51556;50.002;22.014;2022-09-24T09:41:49;5.20;;;3.30;;
65009;SDS011;51556;50.002;22.014;2022-09-24T09:44:25;4.00;;;2.70;;
65009;SDS011;51556;50.002;22.014;2022-09-24T09:46:57;7.20;;;3.10;;
65009;SDS011;51556;50.002;22.014;2022-09-24T09:49:31;4.80;;;3.20;;
65009;SDS011;51556;50.002;22.014;2022-09-24T09:52:03;5.70;;;2.80;;
65009;SDS011;51556;50.002;22.014;2022-09-24T09:54:40;4.30;;;2.50;;
65009;SDS011;51556;50.002;22.014;2022-09-24T09:57:11;3.10;;;2.60;;
65009;SDS011;51556;50.002;22.014;2022-09-24T09:59:44;6.70;;;2.70;;
65009;SDS011;51556;50.002;22.014;2022-09-24T10:02:13;4.10;;;2.60;;
65009;SDS011;51556;50.002;22.014;2022-09-24T10:04:50;3.70;;;2.40;;
65009;SDS011;51556;50.002;22.014;2022-09-24T10:07:18;3.40;;;2.20;;
65009;SDS011;51556;50.002;22.014;2022-09-24T10:09:44;4.50;;;2.40;;
65009;SDS011;51556;50.002;22.014;2022-09-24T10:12:23;4.70;;;2.30;;
65009;SDS011;51556;50.002;22.014;2022-09-24T10:14:58;3.90;;;2.00;;
65009;SDS011;51556;50.002;22.014;2022-09-24T10:17:30;3.70;;;2.20;;
65009;SDS011;51556;50.002;22.014;2022-09-24T10:20:00;3.50;;;2.30;;
65009;SDS011;51556;50.002;22.014;2022-09-24T10:22:31;3.90;;;2.00;;
65009;SDS011;51556;50.002;22.014;2022-09-24T10:24:57;3.30;;;2.20;;
65009;SDS011;51556;50.002;22.014;2022-09-24T10:27:34;3.60;;;1.90;;
65009;SDS011;51556;50.002;22.014;2022-09-24T10:30:11;2.70;;;1.70;;
65009;SDS011;51556;50.002;22.014;2022-09-24T10:32:58;1.80;;;1.60;;
65009;SDS011;51556;50.002;22.014;2022-09-24T10:38:00;2.90;;;1.80;;
65009;SDS011;51556;50.002;22.014;2022-09-24T10:40:38;2.30;;;1.80;;
65009;SDS011;51556;50.002;22.014;2022-09-24T10:43:05;3.70;;;1.90;;
65009;SDS011;51556;50.002;22.014;2022-09-24T10:48:34;2.00;;;1.70;;
65009;SDS011;51556;50.002;22.014;2022-09-24T10:57:20;2.70;;;2.00;;
65009;SDS011;51556;50.002;22.014;2022-09-24T11:03:17;2.70;;;2.00;;
65009;SDS011;51556;50.002;22.014;2022-09-24T11:06:00;4.30;;;2.30;;
65009;SDS011;51556;50.002;22.014;2022-09-24T11:28:15;3.10;;;2.00;;
65009;SDS011;51556;50.002;22.014;2022-09-24T11:49:52;2.70;;;1.90;;
65009;SDS011;51556;50.002;22.014;2022-09-24T11:57:36;4.60;;;2.30;;
65009;SDS011;51556;50.002;22.014;2022-09-24T12:00:10;2.20;;;1.80;;
65009;SDS011;51556;50.002;22.014;2022-09-24T12:07:56;3.40;;;2.10;;
65009;SDS011;51556;50.002;22.014;2022-09-24T12:13:35;7.30;;;2.40;;
65009;SDS011;51556;50.002;22.014;2022-09-24T12:16:15;3.20;;;2.30;;
65009;SDS011;51556;50.002;22.014;2022-09-24T12:21:37;2.20;;;2.00;;
65009;SDS011;51556;50.002;22.014;2022-09-24T12:26:49;3.60;;;2.70;;
65009;SDS011;51556;50.002;22.014;2022-09-24T12:37:39;2.60;;;2.00;;
65009;SDS011;51556;50.002;22.014;2022-09-24T12:42:38;2.60;;;1.70;;
65009;SDS011;51556;50.002;22.014;2022-09-24T12:45:20;2.60;;;2.00;;
65009;SDS011;51556;50.002;22.014;2022-09-24T12:47:52;2.50;;;2.10;;
65009;SDS011;51556;50.002;22.014;2022-09-24T12:50:27;2.70;;;1.80;;
65009;SDS011;51556;50.002;22.014;2022-09-24T12:52:55;2.80;;;2.00;;
65009;SDS011;51556;50.002;22.014;2022-09-24T12:55:23;2.70;;;1.90;;
65009;SDS011;51556;50.002;22.014;2022-09-24T12:58:02;2.20;;;1.70;;
65009;SDS011;51556;50.002;22.014;2022-09-24T13:00:37;2.30;;;1.80;;
65009;SDS011;51556;50.002;22.014;2022-09-24T13:03:30;3.40;;;2.00;;
65009;SDS011;51556;50.002;22.014;2022-09-24T13:05:56;3.80;;;1.70;;
65009;SDS011;51556;50.002;22.014;2022-09-24T13:08:24;3.80;;;2.00;;
65009;SDS011;51556;50.002;22.014;2022-09-24T13:11:00;4.10;;;2.00;;
65009;SDS011;51556;50.002;22.014;2022-09-24T13:13:32;2.40;;;2.20;;
65009;SDS011;51556;50.002;22.014;2022-09-24T13:16:04;3.00;;;2.00;;
65009;SDS011;51556;50.002;22.014;2022-09-24T13:18:39;2.70;;;2.10;;
65009;SDS011;51556;50.002;22.014;2022-09-24T13:21:05;4.90;;;2.00;;
65009;SDS011;51556;50.002;22.014;2022-09-24T13:26:01;3.50;;;2.10;;
65009;SDS011;51556;50.002;22.014;2022-09-24T13:33:47;3.50;;;2.20;;
65009;SDS011;51556;50.002;22.014;2022-09-24T13:38:59;3.20;;;1.70;;
65009;SDS011;51556;50.002;22.014;2022-09-24T13:46:43;3.50;;;1.90;;
65009;SDS011;51556;50.002;22.014;2022-09-24T13:49:12;3.30;;;1.40;;
65009;SDS011;51556;50.002;22.014;2022-09-24T13:51:44;2.50;;;2.20;;
65009;SDS011;51556;50.002;22.014;2022-09-24T13:57:08;2.60;;;1.50;;
65009;SDS011;51556;50.002;22.014;2022-09-24T13:59:36;7.00;;;4.30;;
65009;SDS011;51556;50.002;22.014;2022-09-24T14:02:02;3.50;;;2.50;;
65009;SDS011;51556;50.002;22.014;2022-09-24T14:04:28;2.20;;;1.90;;
65009;SDS011;51556;50.002;22.014;2022-09-24T14:06:55;3.40;;;2.40;;
65009;SDS011;51556;50.002;22.014;2022-09-24T14:12:11;2.30;;;1.80;;
65009;SDS011;51556;50.002;22.014;2022-09-24T14:14:42;2.20;;;1.50;;
65009;SDS011;51556;50.002;22.014;2022-09-24T14:17:12;3.20;;;1.80;;
65009;SDS011;51556;50.002;22.014;2022-09-24T14:19:42;3.50;;;1.50;;
65009;SDS011;51556;50.002;22.014;2022-09-24T14:22:21;2.20;;;1.60;;
65009;SDS011;51556;50.002;22.014;2022-09-24T14:27:31;3.90;;;1.90;;
65009;SDS011;51556;50.002;22.014;2022-09-24T14:30:06;7.10;;;2.30;;
65009;SDS011;51556;50.002;22.014;2022-09-24T14:32:40;2.80;;;2.00;;
65009;SDS011;51556;50.002;22.014;2022-09-24T14:35:21;2.20;;;1.80;;
65009;SDS011;51556;50.002;22.014;2022-09-24T14:37:53;2.80;;;1.90;;
65009;SDS011;51556;50.002;22.014;2022-09-24T14:40:25;4.40;;;3.40;;
65009;SDS011;51556;50.002;22.014;2022-09-24T14:43:02;5.80;;;3.90;;
65009;SDS011;51556;50.002;22.014;2022-09-24T14:45:35;2.70;;;1.80;;
65009;SDS011;51556;50.002;22.014;2022-09-24T14:48:03;7.20;;;5.10;;
65009;SDS011;51556;50.002;22.014;2022-09-24T14:50:31;25.60;;;13.40;;
65009;SDS011;51556;50.002;22.014;2022-09-24T14:53:09;14.90;;;8.40;;
65009;SDS011;51556;50.002;22.014;2022-09-24T14:55:39;6.80;;;4.60;;
65009;SDS011;51556;50.002;22.014;2022-09-24T14:58:20;4.80;;;3.00;;
65009;SDS011;51556;50.002;22.014;2022-09-24T15:03:49;7.40;;;4.10;;
65009;SDS011;51556;50.002;22.014;2022-09-24T15:06:25;9.10;;;4.30;;
65009;SDS011;51556;50.002;22.014;2022-09-24T15:11:25;2.20;;;1.80;;
65009;SDS011;51556;50.002;22.014;2022-09-24T15:16:31;2.30;;;1.90;;
65009;SDS011;51556;50.002;22.014;2022-09-24T15:21:44;3.10;;;1.80;;
65009;SDS011;51556;50.002;22.014;2022-09-24T15:24:12;3.10;;;2.10;;
65009;SDS011;51556;50.002;22.014;2022-09-24T15:26:40;3.10;;;2.20;;
65009;SDS011;51556;50.002;22.014;2022-09-24T15:29:08;2.20;;;2.00;;
65009;SDS011;51556;50.002;22.014;2022-09-24T15:31:42;5.10;;;2.90;;
65009;SDS011;51556;50.002;22.014;2022-09-24T15:34:08;3.90;;;2.60;;
65009;SDS011;51556;50.002;22.014;2022-09-24T15:36:33;3.70;;;2.70;;
65009;SDS011;51556;50.002;22.014;2022-09-24T15:38:59;13.40;;;5.40;;
65009;SDS011;51556;50.002;22.014;2022-09-24T15:41:27;13.40;;;8.10;;
65009;SDS011;51556;50.002;22.014;2022-09-24T15:43:56;13.00;;;7.60;;
65009;SDS011;51556;50.002;22.014;2022-09-24T15:46:23;12.90;;;7.20;;
65009;SDS011;51556;50.002;22.014;2022-09-24T15:48:50;13.40;;;7.60;;
65009;SDS011;51556;50.002;22.014;2022-09-24T15:51:18;11.90;;;6.70;;
65009;SDS011;51556;50.002;22.014;2022-09-24T15:53:46;12.10;;;7.40;;
65009;SDS011;51556;50.002;22.014;2022-09-24T15:56:12;12.90;;;7.10;;
65009;SDS011;51556;50.002;22.014;2022-09-24T15:58:47;15.70;;;8.90;;
65009;SDS011;51556;50.002;22.014;2022-09-24T16:01:15;15.80;;;9.40;;
65009;SDS011;51556;50.002;22.014;2022-09-24T16:03:42;25.50;;;13.90;;
65009;SDS011;51556;50.002;22.014;2022-09-24T16:06:09;35.80;;;21.20;;
65009;SDS011;51556;50.002;22.014;2022-09-24T16:08:36;39.40;;;26.20;;
65009;SDS011;51556;50.002;22.014;2022-09-24T16:11:02;32.40;;;20.50;;
65009;SDS011;51556;50.002;22.014;2022-09-24T16:13:30;27.80;;;17.80;;
65009;SDS011;51556;50.002;22.014;2022-09-24T16:16:04;21.80;;;14.30;;
65009;SDS011;51556;50.002;22.014;2022-09-24T16:18:30;20.70;;;14.80;;
65009;SDS011;51556;50.002;22.014;2022-09-24T16:20:55;22.00;;;14.80;;
65009;SDS011;51556;50.002;22.014;2022-09-24T16:23:21;24.60;;;14.80;;
65009;SDS011;51556;50.002;22.014;2022-09-24T16:25:54;22.60;;;13.90;;
65009;SDS011;51556;50.002;22.014;2022-09-24T16:28:21;18.50;;;11.60;;
65009;SDS011;51556;50.002;22.014;2022-09-24T16:30:46;19.80;;;11.90;;
65009;SDS011;51556;50.002;22.014;2022-09-24T16:33:12;34.10;;;21.60;;
65009;SDS011;51556;50.002;22.014;2022-09-24T16:35:40;32.30;;;19.40;;
65009;SDS011;51556;50.002;22.014;2022-09-24T16:38:05;28.40;;;15.60;;
65009;SDS011;51556;50.002;22.014;2022-09-24T16:40:31;24.80;;;14.90;;
65009;SDS011;51556;50.002;22.014;2022-09-24T16:42:57;23.30;;;14.40;;
65009;SDS011;51556;50.002;22.014;2022-09-24T16:45:23;22.10;;;15.30;;
65009;SDS011;51556;50.002;22.014;2022-09-24T16:47:48;24.20;;;15.20;;
65009;SDS011;51556;50.002;22.014;2022-09-24T16:50:14;21.70;;;14.80;;
65009;SDS011;51556;50.002;22.014;2022-09-24T16:52:39;24.00;;;15.20;;
65009;SDS011;51556;50.002;22.014;2022-09-24T16:55:07;24.50;;;15.50;;
65009;SDS011;51556;50.002;22.014;2022-09-24T16:57:34;30.60;;;17.50;;
65009;SDS011;51556;50.002;22.014;2022-09-24T17:00:05;29.80;;;18.40;;
65009;SDS011;51556;50.002;22.014;2022-09-24T17:02:33;29.80;;;18.60;;
65009;SDS011;51556;50.002;22.014;2022-09-24T17:05:00;27.60;;;18.40;;
65009;SDS011;51556;50.002;22.014;2022-09-24T17:07:28;27.50;;;17.70;;
65009;SDS011;51556;50.002;22.014;2022-09-24T17:09:55;29.80;;;16.50;;
65009;SDS011;51556;50.002;22.014;2022-09-24T17:12:43;23.30;;;14.80;;
65009;SDS011;51556;50.002;22.014;2022-09-24T17:15:09;25.40;;;15.80;;
65009;SDS011;51556;50.002;22.014;2022-09-24T17:17:35;25.90;;;16.10;;
65009;SDS011;51556;50.002;22.014;2022-09-24T17:20:00;25.90;;;17.20;;
65009;SDS011;51556;50.002;22.014;2022-09-24T17:22:27;30.50;;;18.20;;
65009;SDS011;51556;50.002;22.014;2022-09-24T17:24:53;33.20;;;19.70;;
65009;SDS011;51556;50.002;22.014;2022-09-24T17:27:19;34.20;;;20.00;;
65009;SDS011;51556;50.002;22.014;2022-09-24T17:29:47;37.80;;;21.00;;
65009;SDS011;51556;50.002;22.014;2022-09-24T17:32:13;36.20;;;19.00;;
65009;SDS011;51556;50.002;22.014;2022-09-24T17:34:38;27.60;;;18.00;;
65009;SDS011;51556;50.002;22.014;2022-09-24T17:37:04;33.60;;;18.40;;